Buoy 46562

sailwx.info

Track history (hours):
 
Tides and Currents Weather Stations Pressure Air Temp Water Temp Dewpoint Dewpoint Depression Visibility Wind Speed Wind Dir Waves Ship Positions

Drifting buoy 46562

Last reported at 2015-Mar-27 18:00 UTC. Time now 2015-Mar-27 22:15 UTC.
Position N 43°14' W 127°07'.

Water temperature 12.4 ° C

Date/timePositionNaut miles runAvg speedWind from/ knotsBaromVisibWave heightAir tempDewpointWater temp
2015-Mar-27 18:00N 43°14' W 127°07'1 0.8 12.4
2015-Mar-27 17:00N 43°14' W 127°08'0 0.0 12.4
2015-Mar-27 16:00N 43°14' W 127°08'0 0.2 12.4
2015-Mar-27 15:00N 43°14' W 127°08'1 0.8 12.4
2015-Mar-27 14:00N 43°13' W 127°09'1 0.7 12.4
2015-Mar-27 12:00N 43°12' W 127°09'1 1.0 12.4
2015-Mar-27 11:00N 43°11' W 127°09'0 0.0 12.5
2015-Mar-27 10:00N 43°11' W 127°09'2 0.5 12.6
2015-Mar-27 06:00N 43°10' W 127°06'1 0.8 12.6
2015-Mar-27 05:00N 43°11' W 127°06'1 0.2 12.6
2015-Mar-27 02:00N 43°12' W 127°06'1 0.6 12.7
2015-Mar-27 01:00N 43°12' W 127°07'0 0.1 12.8
2015-Mar-27 00:00N 43°12' W 127°07'1 0.4 12.8
2015-Mar-26 22:00N 43°11' W 127°08'3 0.3 12.8
2015-Mar-26 14:00N 43°09' W 127°06'1 0.8 12.2
2015-Mar-26 13:00N 43°09' W 127°05'2 0.6 12.2
2015-Mar-26 10:00N 43°10' W 127°06'1 1.3 12.2
2015-Mar-26 09:00N 43°10' W 127°05'2 0.4 12.2
2015-Mar-26 05:00N 43°10' W 127°07'2 0.5 12.2
2015-Mar-26 01:00N 43°08' W 127°08'1 0.7 12.2
2015-Mar-25 23:00N 43°07' W 127°07'1 0.5 12.2
2015-Mar-25 20:00N 43°07' W 127°06'1 0.5 12.1
2015-Mar-25 19:00N 43°08' W 127°05'0 0.2 12.1
2015-Mar-25 17:00N 43°08' W 127°06'1 0.7 12.0
2015-Mar-25 15:00N 43°09' W 127°07'1 0.8 11.9
2015-Mar-25 14:00N 43°09' W 127°08'1 0.3 12.0
2015-Mar-25 11:00N 43°08' W 127°09'1 0.6 12.0
2015-Mar-25 10:00N 43°08' W 127°10'1 0.3 12.0
2015-Mar-25 06:00N 43°07' W 127°09'1 0.5 12.0
2015-Mar-25 05:00N 43°07' W 127°09'0 0.3 12.0
2015-Mar-25 04:00N 43°06' W 127°09'0 0.1 12.0
2015-Mar-25 03:00N 43°06' W 127°09'1 0.9 12.0
2015-Mar-25 02:00N 43°06' W 127°08'0 0.0 12.0
2015-Mar-25 01:00N 43°06' W 127°08'0 0.2 12.0
2015-Mar-25 00:00N 43°06' W 127°08'2 1.1 12.0
2015-Mar-24 22:00N 43°08' W 127°09'0 0.0 12.0
2015-Mar-24 21:00N 43°08' W 127°09'   11.9
Track history (hours):
 
Tides and Currents Weather Stations Pressure Air Temp Water Temp Dewpoint Dewpoint Depression Visibility Wind Speed Wind Dir Waves Ship Positions

Drifting buoy 46562

Last reported at 2015-Mar-27 18:00 UTC. Time now 2015-Mar-27 22:15 UTC.
Position N 43°14' W 127°07'.

Water temperature 12.4 ° C

Date/timePositionNaut miles runAvg speedWind from/ knotsBaromVisibWave heightAir tempDewpointWater temp
2015-Mar-27 18:00N 43°14' W 127°07'1 0.8 12.4
2015-Mar-27 17:00N 43°14' W 127°08'0 0.0 12.4
2015-Mar-27 16:00N 43°14' W 127°08'0 0.2 12.4
2015-Mar-27 15:00N 43°14' W 127°08'1 0.8 12.4
2015-Mar-27 14:00N 43°13' W 127°09'1 0.7 12.4
2015-Mar-27 12:00N 43°12' W 127°09'1 1.0 12.4
2015-Mar-27 11:00N 43°11' W 127°09'0 0.0 12.5
2015-Mar-27 10:00N 43°11' W 127°09'2 0.5 12.6
2015-Mar-27 06:00N 43°10' W 127°06'1 0.8 12.6
2015-Mar-27 05:00N 43°11' W 127°06'1 0.2 12.6
2015-Mar-27 02:00N 43°12' W 127°06'1 0.6 12.7
2015-Mar-27 01:00N 43°12' W 127°07'0 0.1 12.8
2015-Mar-27 00:00N 43°12' W 127°07'1 0.4 12.8
2015-Mar-26 22:00N 43°11' W 127°08'3 0.3 12.8
2015-Mar-26 14:00N 43°09' W 127°06'1 0.8 12.2
2015-Mar-26 13:00N 43°09' W 127°05'2 0.6 12.2
2015-Mar-26 10:00N 43°10' W 127°06'1 1.3 12.2
2015-Mar-26 09:00N 43°10' W 127°05'2 0.4 12.2
2015-Mar-26 05:00N 43°10' W 127°07'2 0.5 12.2
2015-Mar-26 01:00N 43°08' W 127°08'1 0.7 12.2
2015-Mar-25 23:00N 43°07' W 127°07'1 0.5 12.2
2015-Mar-25 20:00N 43°07' W 127°06'1 0.5 12.1
2015-Mar-25 19:00N 43°08' W 127°05'0 0.2 12.1
2015-Mar-25 17:00N 43°08' W 127°06'1 0.7 12.0
2015-Mar-25 15:00N 43°09' W 127°07'1 0.8 11.9
2015-Mar-25 14:00N 43°09' W 127°08'1 0.3 12.0
2015-Mar-25 11:00N 43°08' W 127°09'1 0.6 12.0
2015-Mar-25 10:00N 43°08' W 127°10'1 0.3 12.0
2015-Mar-25 06:00N 43°07' W 127°09'1 0.5 12.0
2015-Mar-25 05:00N 43°07' W 127°09'0 0.3 12.0
2015-Mar-25 04:00N 43°06' W 127°09'0 0.1 12.0
2015-Mar-25 03:00N 43°06' W 127°09'1 0.9 12.0
2015-Mar-25 02:00N 43°06' W 127°08'0 0.0 12.0
2015-Mar-25 01:00N 43°06' W 127°08'0 0.2 12.0
2015-Mar-25 00:00N 43°06' W 127°08'2 1.1 12.0
2015-Mar-24 22:00N 43°08' W 127°09'0 0.0 12.0
2015-Mar-24 21:00N 43°08' W 127°09'   11.9

Dump ship's entire track history